Time;durP1;ratioP1;P1;durP2;ratioP2;P2;SDS_P1;SDS_P2;PMS_P1;PMS_P2;Temp;Humidity;BMP_temperature;BMP_pressure;BME280_temperature;BME280_humidity;BME280_pressure;Samples;Min_cycle;Max_cycle;Signal;HPM_P1;HPM_P2
2022/05/26 00:01:04;;;;;;;24.08;7.80;;;14.20;99.90;;;;;;4972997;28;20121;-68
2022/05/26 00:03:42;;;;;;;30.02;7.70;;;14.20;99.90;;;;;;4974276;28;20435;-68
2022/05/26 00:06:10;;;;;;;28.10;8.05;;;14.20;99.90;;;;;;4969490;28;20035;-68
2022/05/26 00:08:39;;;;;;;;;;;14.20;99.90;;;;;;4935607;28;20066;-69
2022/05/26 00:11:09;;;;;;;33.13;8.60;;;14.10;99.90;;;;;;4970337;28;19922;-68
2022/05/26 00:13:36;;;;;;;29.33;8.45;;;14.10;99.90;;;;;;4968439;28;20038;-70
2022/05/26 00:16:03;;;;;;;33.67;8.43;;;14.00;99.90;;;;;;4964085;28;20485;-69
2022/05/26 00:18:28;;;;;;;31.33;7.72;;;14.10;99.90;;;;;;4951906;28;20051;-67
2022/05/26 00:20:54;;;;;;;33.42;8.73;;;14.10;99.90;;;;;;4962511;28;20058;-69
2022/05/26 00:23:19;;;;;;;35.97;8.40;;;14.10;99.90;;;;;;4973507;28;20058;-68
2022/05/26 00:25:45;;;;;;;35.75;8.73;;;14.10;99.90;;;;;;4987952;28;20386;-68
2022/05/26 00:28:12;;;;;;;32.97;8.75;;;14.00;99.90;;;;;;4970401;28;20035;-69
2022/05/26 00:30:38;;;;;;;31.17;7.97;;;14.10;99.90;;;;;;4959554;28;20054;-68
2022/05/26 00:33:06;;;;;;;38.22;8.38;;;14.00;99.90;;;;;;4972475;28;20051;-68
2022/05/26 00:35:34;;;;;;;;;;;14.00;99.90;;;;;;4971005;28;20407;-69
2022/05/26 00:38:06;;;;;;;32.38;9.00;;;14.00;99.90;;;;;;4970974;28;19930;-67
2022/05/26 00:40:32;;;;;;;34.53;9.05;;;14.00;99.90;;;;;;4970514;28;20054;-68
2022/05/26 00:42:58;;;;;;;39.63;10.15;;;14.00;99.90;;;;;;4972902;28;20039;-68
2022/05/26 00:45:29;;;;;;;31.65;8.93;;;13.90;99.90;;;;;;4970008;28;20039;-69
2022/05/26 00:47:55;;;;;;;34.53;10.25;;;13.90;99.90;;;;;;4968358;28;20051;-68
2022/05/26 00:50:29;;;;;;;30.33;9.10;;;13.90;99.90;;;;;;4984144;28;20042;-69
2022/05/26 00:53:02;;;;;;;38.53;10.05;;;13.90;99.90;;;;;;4972568;28;20481;-69
2022/05/26 00:55:38;;;;;;;39.13;9.55;;;13.80;99.90;;;;;;4971052;28;20035;-68
2022/05/26 00:58:30;;;;;;;32.45;8.60;;;13.80;99.90;;;;;;4967509;28;20050;-69
2022/05/26 01:00:59;;;;;;;39.22;8.63;;;13.80;99.90;;;;;;4968927;28;20057;-69
2022/05/26 01:03:44;;;;;;;41.20;9.75;;;13.80;99.90;;;;;;4966711;28;20041;-69
2022/05/26 01:06:28;;;;;;;33.47;9.27;;;13.80;99.90;;;;;;4964875;28;20081;-70
2022/05/26 01:09:04;;;;;;;37.08;8.55;;;13.80;99.90;;;;;;4966133;28;20051;-69
2022/05/26 01:11:34;;;;;;;35.90;9.02;;;13.80;99.90;;;;;;4982378;28;20047;-68
2022/05/26 01:14:33;;;;;;;34.28;8.82;;;13.90;99.90;;;;;;4966597;28;20445;-68
2022/05/26 01:17:16;;;;;;;36.83;8.43;;;13.80;99.90;;;;;;4965218;28;20129;-69
2022/05/26 01:20:10;;;;;;;30.75;8.30;;;13.80;99.90;;;;;;4973098;28;20046;-69
2022/05/26 01:23:13;;;;;;;34.13;8.85;;;13.90;99.90;;;;;;4965602;28;20051;-69
2022/05/26 01:25:57;;;;;;;39.42;8.38;;;13.80;99.90;;;;;;4982286;28;20043;-69
2022/05/26 01:28:51;;;;;;;29.13;7.40;;;13.90;99.90;;;;;;4965772;28;20054;-68
2022/05/26 01:31:38;;;;;;;28.35;7.45;;;13.80;99.90;;;;;;4979721;28;20046;-69
2022/05/26 01:34:38;;;;;;;33.25;7.65;;;13.80;99.90;;;;;;4966174;28;20050;-69
2022/05/26 01:37:20;;;;;;;37.70;9.68;;;13.80;99.90;;;;;;4967542;28;20054;-69
2022/05/26 01:40:05;;;;;;;33.03;6.65;;;13.80;99.90;;;;;;4970431;28;20102;-69
2022/05/26 01:42:49;;;;;;;37.15;7.53;;;13.80;99.90;;;;;;4966377;28;20061;-69
2022/05/26 01:45:40;;;;;;;33.67;7.95;;;13.80;99.90;;;;;;4963187;28;20050;-69
2022/05/26 01:48:16;;;;;;;30.35;6.90;;;13.80;99.90;;;;;;4960284;28;20126;-69
2022/05/26 01:50:51;;;;;;;35.10;6.68;;;13.80;99.90;;;;;;4966988;28;20042;-69
2022/05/26 01:53:31;;;;;;;32.00;8.20;;;13.80;99.90;;;;;;4967345;28;20101;-70
2022/05/26 01:56:24;;;;;;;34.90;7.30;;;13.80;99.90;;;;;;4964468;28;20536;-70
2022/05/26 01:58:59;;;;;;;31.73;6.80;;;13.80;99.90;;;;;;4962324;28;20051;-69
2022/05/26 02:01:28;;;;;;;36.10;7.45;;;13.80;99.90;;;;;;4965936;28;20050;-69
2022/05/26 02:03:57;;;;;;;29.02;6.90;;;13.80;99.90;;;;;;4970832;28;20061;-69
2022/05/26 02:06:27;;;;;;;32.08;7.95;;;13.80;99.90;;;;;;4983968;28;20500;-71
2022/05/26 02:09:04;;;;;;;36.47;7.25;;;13.80;99.90;;;;;;4963369;28;20065;-69
2022/05/26 02:11:33;;;;;;;34.72;7.15;;;13.80;99.90;;;;;;4966299;28;20129;-70
2022/05/26 02:14:10;;;;;;;38.92;7.75;;;13.80;99.90;;;;;;4979714;28;20043;-69
2022/05/26 02:17:02;;;;;;;34.20;6.82;;;13.80;99.90;;;;;;4965208;28;20046;-68
2022/05/26 02:19:33;;;;;;;34.53;6.88;;;13.80;99.90;;;;;;4968283;28;20104;-69
2022/05/26 02:22:02;;;;;;;36.58;6.68;;;13.80;99.90;;;;;;4960940;28;20058;-68
2022/05/26 02:24:40;;;;;;;40.60;7.93;;;13.70;99.90;;;;;;4964925;28;20046;-69
2022/05/26 02:27:06;;;;;;;37.35;6.38;;;13.70;99.90;;;;;;4960353;28;20900;-69
2022/05/26 02:29:51;;;;;;;34.20;6.82;;;13.70;99.90;;;;;;4964952;28;20054;-69
2022/05/26 02:32:23;;;;;;;37.28;7.10;;;13.70;99.90;;;;;;4962663;28;20078;-68
2022/05/26 02:34:51;;;;;;;29.13;6.88;;;13.70;99.90;;;;;;4964408;28;20057;-69
2022/05/26 02:37:17;;;;;;;;;;;13.70;99.90;;;;;;4978140;28;20038;-70
2022/05/26 02:39:43;;;;;;;32.60;7.38;;;13.70;99.90;;;;;;4967900;28;19922;-69
2022/05/26 02:42:11;;;;;;;34.08;6.80;;;13.60;99.90;;;;;;4969872;28;20536;-69
2022/05/26 02:44:37;;;;;;;30.02;6.38;;;13.60;99.90;;;;;;4964522;28;20093;-69
2022/05/26 02:47:15;;;;;;;31.15;6.18;;;13.60;99.90;;;;;;4966788;28;20558;-68
2022/05/26 02:50:02;;;;;;;33.47;6.57;;;13.60;99.90;;;;;;4969355;28;20053;-69
2022/05/26 02:52:45;;;;;;;29.10;6.78;;;13.60;99.90;;;;;;4960712;28;20134;-69
2022/05/26 02:55:31;;;;;;;31.10;6.20;;;13.60;99.90;;;;;;4969186;28;20393;-69
2022/05/26 02:58:02;;;;;;;38.13;7.47;;;13.60;99.90;;;;;;4969340;28;20440;-68
2022/05/26 03:00:39;;;;;;;28.95;6.85;;;13.50;99.90;;;;;;4964690;28;20161;-69
2022/05/26 03:03:44;;;;;;;28.00;5.93;;;13.40;99.90;;;;;;4983621;28;20050;-68
2022/05/26 03:06:27;;;;;;;36.80;6.35;;;13.50;99.90;;;;;;4967090;28;20409;-68
2022/05/26 03:08:54;;;;;;;25.70;6.50;;;13.40;99.90;;;;;;4986844;28;20058;-69
2022/05/26 03:11:23;;;;;;;31.23;6.70;;;13.40;99.90;;;;;;4969557;28;20050;-68
2022/05/26 03:13:50;;;;;;;31.15;6.55;;;13.40;99.90;;;;;;4965441;28;20654;-69
2022/05/26 03:16:17;;;;;;;31.60;5.80;;;13.30;99.90;;;;;;4973323;28;20043;-69
2022/05/26 03:18:42;;;;;;;35.75;6.10;;;13.30;99.90;;;;;;4966635;28;20043;-69
2022/05/26 03:21:10;;;;;;;30.23;6.32;;;13.30;99.90;;;;;;4966828;28;20095;-69
2022/05/26 03:23:37;;;;;;;37.50;8.00;;;13.40;99.90;;;;;;4972360;28;20046;-69
2022/05/26 03:26:03;;;;;;;22.92;5.95;;;13.30;99.90;;;;;;4969297;28;20478;-69
2022/05/26 03:28:30;;;;;;;33.13;6.22;;;13.30;99.90;;;;;;4970964;28;20097;-69
2022/05/26 03:30:56;;;;;;;36.95;6.50;;;13.30;99.90;;;;;;4969711;28;20099;-68
2022/05/26 03:33:22;;;;;;;29.75;7.13;;;13.40;99.90;;;;;;4970575;28;20046;-69
2022/05/26 03:41:21;;;;;;;27.35;6.50;;;13.20;99.90;;;;;;4973445;28;20054;-69
2022/05/26 03:43:51;;;;;;;30.17;6.43;;;13.20;99.90;;;;;;4971042;28;20039;-70
2022/05/26 03:46:17;;;;;;;24.83;5.25;;;13.20;99.90;;;;;;4968481;28;20038;-69
2022/05/26 03:48:43;;;;;;;28.13;6.15;;;13.20;99.90;;;;;;4973331;28;20166;-69
2022/05/26 03:51:09;;;;;;;23.88;5.25;;;13.30;99.90;;;;;;4971017;28;20504;-68
2022/05/26 03:53:35;;;;;;;23.38;5.68;;;13.20;99.90;;;;;;4968678;28;20044;-70
2022/05/26 03:56:02;;;;;;;21.38;5.07;;;13.20;99.90;;;;;;4968596;28;20051;-69
2022/05/26 03:58:28;;;;;;;21.83;5.00;;;13.20;99.90;;;;;;4972256;28;20074;-69
2022/05/26 04:00:53;;;;;;;20.10;4.10;;;13.20;99.90;;;;;;4972529;28;20400;-68
2022/05/26 04:03:19;;;;;;;17.13;4.00;;;13.20;99.90;;;;;;4964650;28;20042;-69
2022/05/26 04:05:45;;;;;;;17.35;3.92;;;13.20;99.90;;;;;;4967823;28;20378;-69
2022/05/26 04:08:11;;;;;;;15.82;3.97;;;13.20;99.90;;;;;;4970752;28;20058;-69
2022/05/26 04:10:38;;;;;;;11.80;3.25;;;13.20;99.90;;;;;;4972693;28;20410;-69
2022/05/26 04:13:04;;;;;;;17.80;3.53;;;13.30;99.90;;;;;;4970882;28;20362;-68
2022/05/26 04:15:31;;;;;;;15.13;3.60;;;13.30;99.90;;;;;;4972687;28;20046;-68
2022/05/26 04:17:56;;;;;;;18.75;3.58;;;13.30;99.90;;;;;;4987395;28;20137;-68
2022/05/26 04:20:23;;;;;;;14.82;2.70;;;13.20;99.90;;;;;;4971410;28;20472;-69
2022/05/26 04:22:49;;;;;;;15.40;3.47;;;13.20;99.90;;;;;;4967561;28;20034;-70
2022/05/26 04:25:17;;;;;;;12.40;2.92;;;13.20;99.90;;;;;;4970705;28;20043;-70
2022/05/26 04:27:43;;;;;;;10.57;2.33;;;13.20;99.90;;;;;;4977904;28;20574;-69
2022/05/26 04:30:11;;;;;;;15.45;2.50;;;13.20;99.90;;;;;;4975087;28;20066;-70
2022/05/26 04:32:39;;;;;;;16.02;2.85;;;13.20;99.90;;;;;;4972298;28;20042;-69
2022/05/26 04:35:05;;;;;;;12.18;2.70;;;13.30;99.90;;;;;;4969753;28;20047;-69
2022/05/26 04:37:31;;;;;;;13.70;3.00;;;13.20;99.90;;;;;;4969026;28;20053;-70
2022/05/26 04:39:58;;;;;;;17.08;2.75;;;13.20;99.90;;;;;;4985675;28;20121;-70
2022/05/26 04:42:25;;;;;;;15.75;2.58;;;13.20;99.90;;;;;;4967399;28;20039;-70
2022/05/26 04:44:51;;;;;;;11.52;2.22;;;13.20;99.90;;;;;;4985686;28;20062;-70
2022/05/26 04:47:17;;;;;;;15.68;2.90;;;13.20;99.90;;;;;;4966742;28;20047;-70
2022/05/26 04:49:44;;;;;;;7.93;2.28;;;13.20;99.90;;;;;;4967856;28;20051;-68
2022/05/26 04:52:18;;;;;;;11.27;2.55;;;13.40;99.90;;;;;;4974193;28;20042;-67
2022/05/26 04:54:44;;;;;;;6.95;2.17;;;13.20;99.90;;;;;;4968682;28;20042;-69
2022/05/26 04:57:11;;;;;;;14.00;2.92;;;13.20;99.90;;;;;;4961519;28;20073;-69
2022/05/26 04:59:39;;;;;;;7.93;1.90;;;13.20;99.90;;;;;;4973374;28;20101;-69
2022/05/26 05:02:09;;;;;;;17.17;2.65;;;13.30;99.90;;;;;;4969755;28;20401;-69
2022/05/26 05:04:34;;;;;;;7.20;1.98;;;13.30;99.90;;;;;;4971320;28;20097;-70
2022/05/26 05:07:00;;;;;;;16.73;2.40;;;13.30;99.90;;;;;;4967946;28;20517;-70
2022/05/26 05:09:25;;;;;;;12.98;2.47;;;13.40;99.90;;;;;;4971141;28;20077;-70
2022/05/26 05:11:51;;;;;;;9.02;2.00;;;13.40;99.90;;;;;;4966449;28;20043;-70
2022/05/26 05:14:17;;;;;;;11.30;2.10;;;13.40;99.90;;;;;;4963430;28;20047;-69
2022/05/26 05:16:44;;;;;;;11.05;2.40;;;13.40;99.90;;;;;;4972762;28;20054;-69
2022/05/26 05:19:16;;;;;;;12.07;2.30;;;13.50;99.90;;;;;;4970904;28;20508;-69
2022/05/26 05:21:49;;;;;;;8.98;2.30;;;13.50;99.90;;;;;;4971156;28;20039;-68
2022/05/26 05:24:28;;;;;;;9.95;2.58;;;13.60;99.90;;;;;;4971797;28;20390;-70
2022/05/26 05:26:56;;;;;;;;;;;13.60;99.90;;;;;;4972065;28;20492;-70
2022/05/26 05:29:25;;;;;;;12.77;2.75;;;13.60;99.90;;;;;;4970225;28;20292;-70
2022/05/26 05:31:57;;;;;;;9.70;2.42;;;13.70;99.90;;;;;;4971091;28;20047;-69
2022/05/26 05:34:36;;;;;;;18.50;2.72;;;13.80;99.90;;;;;;4968541;28;20437;-69
2022/05/26 05:37:02;;;;;;;9.95;2.22;;;13.80;99.90;;;;;;4968659;28;20400;-69
2022/05/26 05:39:28;;;;;;;8.52;2.35;;;13.80;99.90;;;;;;4975552;28;20050;-69
2022/05/26 05:41:55;;;;;;;15.98;1.90;;;13.80;99.90;;;;;;4971217;28;20039;-69
2022/05/26 05:44:22;;;;;;;7.75;1.73;;;13.90;99.90;;;;;;4971992;28;20074;-69
2022/05/26 05:46:53;;;;;;;12.60;2.15;;;13.90;99.90;;;;;;4971517;28;20035;-69
2022/05/26 05:49:24;;;;;;;11.02;2.67;;;14.00;99.90;;;;;;4965545;28;20449;-68
2022/05/26 05:51:51;;;;;;;7.70;2.17;;;14.10;99.90;;;;;;4972730;28;20054;-69
2022/05/26 05:54:18;;;;;;;11.15;2.55;;;14.20;99.90;;;;;;4954255;28;20046;-69
2022/05/26 05:56:44;;;;;;;8.27;1.90;;;14.20;99.90;;;;;;4968986;28;20142;-69
2022/05/26 05:59:10;;;;;;;12.80;2.22;;;14.20;99.90;;;;;;4985308;28;20570;-69
2022/05/26 06:01:35;;;;;;;14.25;2.00;;;14.30;99.90;;;;;;4967656;28;20134;-69
2022/05/26 06:04:01;;;;;;;10.57;1.98;;;14.30;99.90;;;;;;4964085;28;20042;-68
2022/05/26 06:06:27;;;;;;;13.73;2.50;;;14.40;99.90;;;;;;4969933;28;20085;-69
2022/05/26 06:08:52;;;;;;;7.32;1.90;;;14.50;99.90;;;;;;4970013;28;20117;-68
2022/05/26 06:11:18;;;;;;;9.00;2.08;;;14.60;99.90;;;;;;4951796;28;20454;-69
2022/05/26 06:13:44;;;;;;;7.70;2.03;;;14.80;99.90;;;;;;4970532;28;20042;-68
2022/05/26 06:16:11;;;;;;;7.82;2.25;;;14.90;99.90;;;;;;4970305;28;20043;-69
2022/05/26 06:18:37;;;;;;;6.90;1.60;;;15.10;99.90;;;;;;4971010;28;20056;-68
2022/05/26 06:21:06;;;;;;;11.98;2.30;;;15.00;99.90;;;;;;4971569;28;20493;-69
2022/05/26 06:23:32;;;;;;;9.32;2.33;;;15.10;99.90;;;;;;4969759;28;20389;-68
2022/05/26 06:25:59;;;;;;;10.50;2.58;;;15.20;99.90;;;;;;4970989;28;20046;-69
2022/05/26 06:31:09;;;;;;;12.88;2.65;;;15.30;99.90;;;;;;4970550;28;20142;-70
2022/05/26 06:39:06;;;;;;;8.07;2.00;;;15.60;99.90;;;;;;4972048;28;20051;-68
2022/05/26 06:44:18;;;;;;;8.23;2.10;;;15.80;99.90;;;;;;4968366;28;20050;-70
2022/05/26 06:46:44;;;;;;;9.55;2.05;;;15.90;99.90;;;;;;4971944;28;20047;-70
2022/05/26 06:49:10;;;;;;;8.35;1.83;;;15.70;99.90;;;;;;4981411;28;20131;-68
2022/05/26 06:51:39;;;;;;;9.70;2.25;;;15.70;99.90;;;;;;4986183;28;20043;-70
2022/05/26 06:54:06;;;;;;;8.80;1.70;;;15.70;99.90;;;;;;4969244;28;20043;-69
2022/05/26 06:56:32;;;;;;;8.63;2.30;;;15.70;99.90;;;;;;4967454;28;20083;-68
2022/05/26 06:58:58;;;;;;;12.18;2.13;;;15.70;99.90;;;;;;4968144;28;20050;-70
2022/05/26 07:01:24;;;;;;;10.00;1.98;;;15.50;99.90;;;;;;4981656;28;20031;-70
2022/05/26 07:03:50;;;;;;;7.90;1.92;;;15.60;99.90;;;;;;4952256;28;20081;-69
2022/05/26 07:06:24;;;;;;;11.15;1.60;;;15.60;99.90;;;;;;4972049;28;20080;-68
2022/05/26 07:08:50;;;;;;;6.78;1.65;;;15.60;99.90;;;;;;4972005;28;20061;-69
2022/05/26 07:11:16;;;;;;;12.07;2.00;;;16.00;99.90;;;;;;4965739;28;20046;-69
2022/05/26 07:13:42;;;;;;;7.20;1.52;;;15.70;99.90;;;;;;4987478;28;20050;-69
2022/05/26 07:16:10;;;;;;;11.52;1.73;;;15.80;99.90;;;;;;4983856;28;20130;-69
2022/05/26 07:18:37;;;;;;;6.53;1.70;;;15.70;99.90;;;;;;4971719;28;20046;-70
2022/05/26 07:21:04;;;;;;;6.57;1.50;;;15.80;99.90;;;;;;4968974;28;20061;-69
2022/05/26 07:23:30;;;;;;;15.43;1.77;;;15.70;99.90;;;;;;4964583;28;20050;-70
2022/05/26 07:25:56;;;;;;;6.40;1.90;;;15.80;99.90;;;;;;4965533;28;20448;-69
2022/05/26 07:28:23;;;;;;;7.88;1.75;;;15.70;99.90;;;;;;4963696;28;20164;-70
2022/05/26 07:30:51;;;;;;;9.32;2.00;;;15.70;99.90;;;;;;4964124;28;20427;-69
2022/05/26 07:33:16;;;;;;;8.00;1.80;;;15.60;99.90;;;;;;4948929;28;20058;-68
2022/05/26 07:35:42;;;;;;;14.40;2.00;;;15.70;99.90;;;;;;4966247;28;20101;-69
2022/05/26 07:41:16;;;;;;;5.03;1.58;;;16.00;99.90;;;;;;4961347;28;20061;-69
2022/05/26 07:43:47;;;;;;;10.77;1.70;;;16.10;99.90;;;;;;4961583;28;20043;-68
2022/05/26 07:46:14;;;;;;;6.30;1.95;;;16.20;99.90;;;;;;4964444;28;20192;-69
2022/05/26 07:48:39;;;;;;;11.93;2.03;;;16.30;99.90;;;;;;4963633;28;20070;-69
2022/05/26 07:51:05;;;;;;;8.23;1.70;;;16.30;99.90;;;;;;4979827;28;20034;-70
2022/05/26 07:53:31;;;;;;;9.48;1.65;;;16.30;99.90;;;;;;4932007;28;20058;-70
2022/05/26 07:56:00;;;;;;;16.40;2.08;;;16.30;99.90;;;;;;4964227;28;20125;-68
2022/05/26 07:58:25;;;;;;;5.82;1.80;;;16.40;99.90;;;;;;4973807;28;20108;-69
2022/05/26 08:00:53;;;;;;;8.60;2.22;;;16.50;99.90;;;;;;4971973;28;20038;-70
2022/05/26 08:03:19;;;;;;;9.75;2.20;;;16.60;99.90;;;;;;4977676;28;20043;-71
2022/05/26 08:05:44;;;;;;;13.07;2.25;;;16.70;99.90;;;;;;4971945;28;20053;-68
2022/05/26 08:08:10;;;;;;;5.53;1.80;;;16.60;99.90;;;;;;4969446;28;20101;-71
2022/05/26 08:10:37;;;;;;;8.50;1.65;;;16.60;99.90;;;;;;4971324;28;20054;-69
2022/05/26 08:13:02;;;;;;;10.73;1.95;;;16.70;99.90;;;;;;4969238;28;20118;-70
2022/05/26 08:15:31;;;;;;;9.57;1.85;;;16.70;99.90;;;;;;4965847;28;20462;-70
2022/05/26 08:17:57;;;;;;;5.70;1.42;;;16.70;99.90;;;;;;4965665;28;20394;-70
2022/05/26 08:20:23;;;;;;;8.13;1.77;;;16.70;99.90;;;;;;4968267;28;20047;-70
2022/05/26 08:22:50;;;;;;;8.77;1.55;;;16.70;99.90;;;;;;4968541;28;20046;-71
2022/05/26 08:25:16;;;;;;;6.75;1.83;;;16.80;99.90;;;;;;4966165;28;20485;-70
2022/05/26 08:27:41;;;;;;;9.10;1.95;;;16.80;99.90;;;;;;4973939;28;20045;-70
2022/05/26 08:30:08;;;;;;;8.63;1.70;;;16.70;99.90;;;;;;4961855;28;20609;-70
2022/05/26 08:32:34;;;;;;;6.50;1.50;;;17.00;99.90;;;;;;4970687;28;20038;-70
2022/05/26 08:35:03;;;;;;;9.80;2.10;;;17.00;99.90;;;;;;4964379;28;20074;-69
2022/05/26 08:37:29;;;;;;;8.13;2.15;;;17.00;99.90;;;;;;4970529;28;20043;-70
2022/05/26 08:39:54;;;;;;;9.38;1.77;;;17.10;99.90;;;;;;4973701;28;20043;-69
2022/05/26 08:42:25;;;;;;;7.43;1.90;;;17.10;99.90;;;;;;4974084;28;20043;-69
2022/05/26 08:44:55;;;;;;;5.88;1.55;;;17.30;99.90;;;;;;4989502;28;20055;-69
2022/05/26 08:47:22;;;;;;;8.60;2.10;;;17.30;99.90;;;;;;4972800;28;20042;-71
2022/05/26 08:49:57;;;;;;;6.75;1.67;;;17.30;99.90;;;;;;4974163;28;20501;-70
2022/05/26 08:52:30;;;;;;;7.88;1.70;;;17.30;99.90;;;;;;4971373;28;20046;-70
2022/05/26 08:55:04;;;;;;;3.83;1.40;;;17.40;99.90;;;;;;4974148;28;20043;-69
2022/05/26 08:58:01;;;;;;;8.98;1.70;;;17.60;99.90;;;;;;4975292;28;20441;-70
2022/05/26 09:00:32;;;;;;;7.85;2.05;;;17.90;99.90;;;;;;4973545;28;20081;-69
2022/05/26 09:03:01;;;;;;;9.00;2.08;;;18.10;99.90;;;;;;4956334;28;20069;-70
2022/05/26 09:05:38;;;;;;;6.82;1.50;;;18.30;99.90;;;;;;4988474;28;20063;-70
2022/05/26 09:14:02;;;;;;;8.63;2.03;;;18.50;99.90;;;;;;4975039;28;20493;-69
2022/05/26 09:16:34;;;;;;;6.28;1.63;;;18.40;99.90;;;;;;4973922;28;20090;-67
2022/05/26 09:19:13;;;;;;;4.78;1.60;;;18.40;99.50;;;;;;4973640;28;20105;-69
2022/05/26 09:21:39;;;;;;;8.38;1.30;;;18.20;99.90;;;;;;4972066;28;20098;-68
2022/05/26 09:24:24;;;;;;;4.38;1.30;;;18.40;99.90;;;;;;4973431;28;20045;-70
2022/05/26 09:26:56;;;;;;;6.00;1.33;;;18.40;98.20;;;;;;4971775;28;20049;-68
2022/05/26 09:29:28;;;;;;;7.07;1.58;;;18.40;97.60;;;;;;4974691;28;20093;-69
2022/05/26 09:31:59;;;;;;;6.10;1.27;;;18.30;98.40;;;;;;4973388;28;20046;-70
2022/05/26 09:34:36;;;;;;;3.42;1.20;;;18.20;99.90;;;;;;4972976;28;20497;-69
2022/05/26 09:37:07;;;;;;;6.60;1.73;;;18.30;98.60;;;;;;4974777;28;20082;-70
2022/05/26 09:39:44;;;;;;;6.82;1.27;;;18.40;99.20;;;;;;4973095;28;20049;-69
2022/05/26 09:42:16;;;;;;;6.72;1.58;;;18.50;99.10;;;;;;4974254;28;20043;-69
2022/05/26 09:44:58;;;;;;;5.05;1.17;;;18.70;99.30;;;;;;4973587;28;20062;-69
2022/05/26 09:47:39;;;;;;;4.43;1.20;;;18.90;97.30;;;;;;4955909;28;20055;-69
2022/05/26 09:50:14;;;;;;;5.47;1.52;;;19.20;96.70;;;;;;4973579;28;20449;-68
2022/05/26 09:52:49;;;;;;;5.25;1.40;;;19.30;96.70;;;;;;4973618;28;20047;-68
2022/05/26 09:55:28;;;;;;;7.15;1.23;;;19.40;96.80;;;;;;4953382;28;20047;-68
2022/05/26 09:58:12;;;;;;;7.07;1.58;;;19.50;96.80;;;;;;4972655;28;20107;-69
2022/05/26 10:00:46;;;;;;;7.75;1.52;;;19.50;95.00;;;;;;4974460;28;20125;-69
2022/05/26 10:03:41;;;;;;;5.10;1.38;;;19.40;96.10;;;;;;4972515;28;20062;-68
2022/05/26 10:06:39;;;;;;;5.65;1.25;;;19.50;94.80;;;;;;4969320;28;20050;-69
2022/05/26 10:09:14;;;;;;;7.18;1.20;;;19.80;95.40;;;;;;4971604;28;20076;-69
2022/05/26 10:12:07;;;;;;;5.80;1.60;;;19.70;94.40;;;;;;4970769;28;20059;-70
2022/05/26 10:14:56;;;;;;;5.63;1.20;;;19.60;93.50;;;;;;4988641;28;20049;-71
2022/05/26 10:18:11;;;;;;;5.22;1.40;;;19.60;93.90;;;;;;4972276;28;20058;-70
2022/05/26 10:20:46;;;;;;;5.55;1.38;;;19.70;94.60;;;;;;4973658;28;20050;-69
2022/05/26 10:23:20;;;;;;;5.95;1.48;;;20.10;95.60;;;;;;4975579;28;20416;-70
2022/05/26 10:26:07;;;;;;;5.22;1.40;;;20.50;94.60;;;;;;4973123;28;20512;-70
2022/05/26 10:29:02;;;;;;;5.85;1.20;;;20.40;92.40;;;;;;4954654;29;20054;-70
2022/05/26 10:31:45;;;;;;;7.57;1.23;;;20.20;94.80;;;;;;4964975;28;20047;-71
2022/05/26 10:34:27;;;;;;;4.18;1.30;;;20.20;94.70;;;;;;4972114;28;20081;-69
2022/05/26 10:37:07;;;;;;;9.85;1.60;;;20.30;94.60;;;;;;4957043;28;20043;-71
2022/05/26 10:39:47;;;;;;;3.78;1.23;;;20.40;93.20;;;;;;4972673;28;20054;-67
2022/05/26 10:42:18;;;;;;;9.00;1.50;;;20.40;93.70;;;;;;4972493;28;20129;-69
2022/05/26 10:45:05;;;;;;;8.13;1.52;;;20.10;92.80;;;;;;4972263;28;20069;-68
2022/05/26 10:47:41;;;;;;;2.80;1.10;;;20.10;91.90;;;;;;4977070;28;20078;-70
2022/05/26 10:50:17;;;;;;;4.15;1.25;;;19.80;93.70;;;;;;4971179;28;20077;-70
2022/05/26 10:52:48;;;;;;;8.00;1.33;;;20.00;93.30;;;;;;4973349;28;20046;-70
2022/05/26 10:55:49;;;;;;;9.70;1.90;;;20.00;93.90;;;;;;4987054;28;20046;-68
2022/05/26 10:58:29;;;;;;;4.72;1.52;;;20.40;94.90;;;;;;4968165;28;20454;-69
2022/05/26 11:00:59;;;;;;;5.28;1.55;;;21.00;95.50;;;;;;4971933;28;20392;-69
2022/05/26 11:03:35;;;;;;;5.30;1.70;;;21.40;94.70;;;;;;4972609;28;20043;-69
2022/05/26 11:06:25;;;;;;;6.75;1.30;;;21.40;93.90;;;;;;4971552;28;20035;-69
2022/05/26 11:09:07;;;;;;;4.82;1.67;;;21.60;92.50;;;;;;4972912;28;20465;-70
2022/05/26 11:11:38;;;;;;;4.32;1.40;;;21.60;91.60;;;;;;4971072;28;20069;-70
2022/05/26 11:17:23;;;;;;;7.13;1.60;;;22.40;93.40;;;;;;4970545;28;20058;-70
2022/05/26 11:19:59;;;;;;;4.70;1.60;;;22.50;91.50;;;;;;4972558;28;20051;-69
2022/05/26 11:22:25;;;;;;;5.63;1.50;;;22.40;91.10;;;;;;4972281;28;20043;-69
2022/05/26 11:24:53;;;;;;;5.50;1.60;;;22.40;88.50;;;;;;4970914;28;20057;-70
2022/05/26 11:27:34;;;;;;;4.55;1.20;;;22.50;89.40;;;;;;4952677;28;20097;-70
2022/05/26 11:38:35;;;;;;;11.68;1.83;;;21.70;88.90;;;;;;4975490;28;20613;-68
2022/05/26 11:41:01;;;;;;;6.30;1.90;;;21.50;90.50;;;;;;4973720;28;20042;-69
2022/05/26 11:44:02;;;;;;;6.32;2.08;;;21.30;91.10;;;;;;4974964;28;20497;-69
2022/05/26 11:46:48;;;;;;;4.95;1.35;;;21.10;91.40;;;;;;4975423;28;20563;-70
2022/05/26 11:49:45;;;;;;;5.97;1.55;;;20.80;91.20;;;;;;4976489;28;20042;-69
2022/05/26 11:52:25;;;;;;;6.93;1.88;;;20.70;92.70;;;;;;4967093;28;20055;-69
2022/05/26 11:54:59;;;;;;;4.00;1.60;;;20.70;92.60;;;;;;4972147;28;20046;-69
2022/05/26 11:57:43;;;;;;;5.70;1.80;;;20.70;92.50;;;;;;4975007;28;20125;-68
2022/05/26 12:00:15;;;;;;;7.38;1.70;;;20.70;91.60;;;;;;4974901;28;20497;-68
2022/05/26 12:02:42;;;;;;;3.75;1.52;;;20.60;92.70;;;;;;4975567;28;20500;-70
2022/05/26 12:05:30;;;;;;;5.00;1.35;;;20.70;93.10;;;;;;4975659;28;20039;-68
2022/05/26 12:08:03;;;;;;;4.20;1.45;;;20.70;92.00;;;;;;4975640;28;20377;-68
2022/05/26 12:10:38;;;;;;;7.25;1.67;;;20.50;93.70;;;;;;4974701;28;20082;-69
2022/05/26 12:13:24;;;;;;;6.68;1.60;;;20.40;92.90;;;;;;4968782;28;20077;-71
2022/05/26 12:16:09;;;;;;;8.15;2.03;;;20.40;93.60;;;;;;4974798;28;20090;-69
2022/05/26 12:19:00;;;;;;;5.95;1.67;;;20.50;93.70;;;;;;4976468;28;20079;-70
2022/05/26 12:21:28;;;;;;;7.20;1.80;;;20.60;94.20;;;;;;4974871;28;20141;-68
2022/05/26 12:23:55;;;;;;;6.43;1.50;;;20.70;92.40;;;;;;4975991;28;20038;-69
2022/05/26 12:26:45;;;;;;;6.30;1.70;;;20.60;91.60;;;;;;4974816;28;20042;-69
2022/05/26 12:29:47;;;;;;;6.03;1.70;;;20.60;93.20;;;;;;4978616;28;20043;-69
2022/05/26 12:32:27;;;;;;;7.72;1.58;;;20.70;92.40;;;;;;4974511;28;20410;-68
2022/05/26 12:35:21;;;;;;;6.10;1.38;;;20.70;92.90;;;;;;4972641;28;20485;-69
2022/05/26 12:38:22;;;;;;;6.22;1.50;;;20.60;92.40;;;;;;4955923;28;20517;-68
2022/05/26 12:41:17;;;;;;;11.48;1.88;;;20.40;93.00;;;;;;4972305;28;20748;-69
2022/05/26 12:43:49;;;;;;;3.47;1.38;;;20.40;92.80;;;;;;4967126;28;20186;-69
2022/05/26 12:46:40;;;;;;;7.30;1.63;;;20.30;93.50;;;;;;4973365;28;20054;-69
2022/05/26 12:49:44;;;;;;;6.32;1.70;;;20.40;93.50;;;;;;4974146;28;20147;-69
2022/05/26 12:52:15;;;;;;;4.93;1.65;;;20.30;94.10;;;;;;4974400;28;20043;-68
2022/05/26 12:54:55;;;;;;;7.72;1.85;;;20.20;94.50;;;;;;4973819;28;20058;-70
2022/05/26 12:57:25;;;;;;;6.03;1.60;;;20.30;93.80;;;;;;4974097;28;20481;-70
2022/05/26 13:00:11;;;;;;;6.97;1.55;;;20.30;94.70;;;;;;4973011;28;20272;-70
2022/05/26 13:02:38;;;;;;;10.23;1.80;;;20.30;93.10;;;;;;4987241;28;20047;-70
2022/05/26 13:05:04;;;;;;;11.23;2.00;;;20.10;93.60;;;;;;4972372;28;20046;-70
2022/05/26 13:07:29;;;;;;;7.78;1.70;;;19.90;94.10;;;;;;4970915;28;20386;-69
2022/05/26 13:09:55;;;;;;;8.27;1.80;;;19.80;94.80;;;;;;4971660;28;20058;-70
2022/05/26 13:12:25;;;;;;;7.40;1.73;;;19.90;95.20;;;;;;4971952;28;20039;-69
2022/05/26 13:15:00;;;;;;;4.15;1.40;;;19.90;94.90;;;;;;4960429;28;20058;-69
2022/05/26 13:17:28;;;;;;;5.03;1.77;;;19.60;94.90;;;;;;4969947;28;20390;-69
2022/05/26 13:19:55;;;;;;;;;;;19.40;95.60;;;;;;4953312;28;20404;-71
2022/05/26 13:22:38;;;;;;;6.20;1.70;;;19.10;96.40;;;;;;4968964;28;19929;-70
2022/05/26 13:25:11;;;;;;;5.38;1.70;;;19.20;97.40;;;;;;4974092;28;20082;-70
2022/05/26 13:27:56;;;;;;;6.95;2.10;;;19.30;96.70;;;;;;4970379;28;20079;-69
2022/05/26 13:33:23;;;;;;;6.07;1.95;;;19.20;97.20;;;;;;4970555;28;20046;-69
2022/05/26 13:35:56;;;;;;;7.60;1.80;;;19.10;97.00;;;;;;4956493;28;20043;-68
2022/05/26 13:38:32;;;;;;;10.18;2.45;;;19.00;97.30;;;;;;4960305;28;20050;-68
2022/05/26 13:41:00;;;;;;;11.30;2.38;;;19.00;97.10;;;;;;4966329;28;20039;-69
2022/05/26 13:43:28;;;;;;;7.55;1.73;;;18.90;97.80;;;;;;4970911;28;20049;-69
2022/05/26 13:45:54;;;;;;;;;;;19.00;97.80;;;;;;4972682;28;20055;-68
2022/05/26 13:48:33;;;;;;;7.05;1.60;;;19.20;97.20;;;;;;4973970;28;19961;-70
2022/05/26 13:51:04;;;;;;;;;;;19.00;97.10;;;;;;4956753;28;20054;-67
2022/05/26 13:53:32;;;;;;;6.75;1.85;;;19.00;97.40;;;;;;4971021;28;19922;-70